sensor_id;sensor_type;location;lat;lon;timestamp;P1;durP1;ratioP1;P2;durP2;ratioP2
69057;SDS011;56128;37.534;-122.308;2023-04-01T00:00:50;4.40;;;1.15;;
69057;SDS011;56128;37.534;-122.308;2023-04-01T00:03:18;3.53;;;1.20;;
69057;SDS011;56128;37.534;-122.308;2023-04-01T00:05:45;4.40;;;1.10;;
69057;SDS011;56128;37.534;-122.308;2023-04-01T00:08:12;3.08;;;1.13;;
69057;SDS011;56128;37.534;-122.308;2023-04-01T00:10:38;4.20;;;1.10;;
69057;SDS011;56128;37.534;-122.308;2023-04-01T00:13:05;3.17;;;1.30;;
69057;SDS011;56128;37.534;-122.308;2023-04-01T00:15:32;3.35;;;1.25;;
69057;SDS011;56128;37.534;-122.308;2023-04-01T00:17:59;7.07;;;1.52;;
69057;SDS011;56128;37.534;-122.308;2023-04-01T00:20:26;4.78;;;1.17;;
69057;SDS011;56128;37.534;-122.308;2023-04-01T00:22:52;4.43;;;1.25;;
69057;SDS011;56128;37.534;-122.308;2023-04-01T00:25:19;4.15;;;1.17;;
69057;SDS011;56128;37.534;-122.308;2023-04-01T00:27:45;4.05;;;1.25;;
69057;SDS011;56128;37.534;-122.308;2023-04-01T00:30:12;2.22;;;1.10;;
69057;SDS011;56128;37.534;-122.308;2023-04-01T00:32:38;4.90;;;1.20;;
69057;SDS011;56128;37.534;-122.308;2023-04-01T00:35:04;2.70;;;1.20;;
69057;SDS011;56128;37.534;-122.308;2023-04-01T00:37:31;3.28;;;1.20;;
69057;SDS011;56128;37.534;-122.308;2023-04-01T00:40:02;1.83;;;1.05;;
69057;SDS011;56128;37.534;-122.308;2023-04-01T00:42:30;3.92;;;1.23;;
69057;SDS011;56128;37.534;-122.308;2023-04-01T00:44:57;5.13;;;1.23;;
69057;SDS011;56128;37.534;-122.308;2023-04-01T00:47:24;3.47;;;1.23;;
69057;SDS011;56128;37.534;-122.308;2023-04-01T00:49:52;4.40;;;1.50;;
69057;SDS011;56128;37.534;-122.308;2023-04-01T00:52:21;7.03;;;1.55;;
69057;SDS011;56128;37.534;-122.308;2023-04-01T00:54:53;4.68;;;1.40;;
69057;SDS011;56128;37.534;-122.308;2023-04-01T00:57:25;6.95;;;1.65;;
69057;SDS011;56128;37.534;-122.308;2023-04-01T00:59:56;9.23;;;2.13;;
69057;SDS011;56128;37.534;-122.308;2023-04-01T01:02:24;2.50;;;1.05;;
69057;SDS011;56128;37.534;-122.308;2023-04-01T01:04:50;4.55;;;1.73;;
69057;SDS011;56128;37.534;-122.308;2023-04-01T01:07:25;5.78;;;1.50;;
69057;SDS011;56128;37.534;-122.308;2023-04-01T01:12:45;2.83;;;1.17;;
69057;SDS011;56128;37.534;-122.308;2023-04-01T01:18:09;3.25;;;1.17;;
69057;SDS011;56128;37.534;-122.308;2023-04-01T01:20:57;4.10;;;1.42;;
69057;SDS011;56128;37.534;-122.308;2023-04-01T01:31:50;4.28;;;1.40;;
69057;SDS011;56128;37.534;-122.308;2023-04-01T01:34:40;5.40;;;1.67;;
69057;SDS011;56128;37.534;-122.308;2023-04-01T01:37:29;3.17;;;0.98;;
69057;SDS011;56128;37.534;-122.308;2023-04-01T01:39:58;5.10;;;1.20;;
69057;SDS011;56128;37.534;-122.308;2023-04-01T01:42:29;3.95;;;1.20;;
69057;SDS011;56128;37.534;-122.308;2023-04-01T01:45:00;6.30;;;1.67;;
69057;SDS011;56128;37.534;-122.308;2023-04-01T01:47:29;3.92;;;1.20;;
69057;SDS011;56128;37.534;-122.308;2023-04-01T01:49:56;4.82;;;1.85;;
69057;SDS011;56128;37.534;-122.308;2023-04-01T01:52:23;5.30;;;1.38;;
69057;SDS011;56128;37.534;-122.308;2023-04-01T01:54:51;5.68;;;1.42;;
69057;SDS011;56128;37.534;-122.308;2023-04-01T01:57:20;3.45;;;1.20;;
69057;SDS011;56128;37.534;-122.308;2023-04-01T01:59:52;1.88;;;1.00;;
69057;SDS011;56128;37.534;-122.308;2023-04-01T02:02:24;5.05;;;1.30;;
69057;SDS011;56128;37.534;-122.308;2023-04-01T02:04:52;5.70;;;1.40;;
69057;SDS011;56128;37.534;-122.308;2023-04-01T02:07:23;6.60;;;1.77;;
69057;SDS011;56128;37.534;-122.308;2023-04-01T02:09:53;3.47;;;1.20;;
69057;SDS011;56128;37.534;-122.308;2023-04-01T02:12:20;3.90;;;1.27;;
69057;SDS011;56128;37.534;-122.308;2023-04-01T02:15:03;4.78;;;1.48;;
69057;SDS011;56128;37.534;-122.308;2023-04-01T02:17:39;5.13;;;1.33;;
69057;SDS011;56128;37.534;-122.308;2023-04-01T02:20:15;5.32;;;1.35;;
69057;SDS011;56128;37.534;-122.308;2023-04-01T02:22:50;3.67;;;1.48;;
69057;SDS011;56128;37.534;-122.308;2023-04-01T02:25:30;3.25;;;1.48;;
69057;SDS011;56128;37.534;-122.308;2023-04-01T02:28:00;3.88;;;1.25;;
69057;SDS011;56128;37.534;-122.308;2023-04-01T02:30:29;5.88;;;1.40;;
69057;SDS011;56128;37.534;-122.308;2023-04-01T02:32:59;4.22;;;1.50;;
69057;SDS011;56128;37.534;-122.308;2023-04-01T02:35:25;6.88;;;1.40;;
69057;SDS011;56128;37.534;-122.308;2023-04-01T02:37:53;4.00;;;1.70;;
69057;SDS011;56128;37.534;-122.308;2023-04-01T02:40:20;4.35;;;1.20;;
69057;SDS011;56128;37.534;-122.308;2023-04-01T02:42:47;6.18;;;1.60;;
69057;SDS011;56128;37.534;-122.308;2023-04-01T02:45:13;4.43;;;1.27;;
69057;SDS011;56128;37.534;-122.308;2023-04-01T02:47:40;4.43;;;1.33;;
69057;SDS011;56128;37.534;-122.308;2023-04-01T02:50:07;5.35;;;1.33;;
69057;SDS011;56128;37.534;-122.308;2023-04-01T02:52:34;6.35;;;1.52;;
69057;SDS011;56128;37.534;-122.308;2023-04-01T02:55:00;6.85;;;1.60;;
69057;SDS011;56128;37.534;-122.308;2023-04-01T02:57:27;6.57;;;1.65;;
69057;SDS011;56128;37.534;-122.308;2023-04-01T02:59:54;4.22;;;1.48;;
69057;SDS011;56128;37.534;-122.308;2023-04-01T03:02:20;3.25;;;1.52;;
69057;SDS011;56128;37.534;-122.308;2023-04-01T03:04:46;4.00;;;1.50;;
69057;SDS011;56128;37.534;-122.308;2023-04-01T03:07:12;3.42;;;1.20;;
69057;SDS011;56128;37.534;-122.308;2023-04-01T03:09:39;8.48;;;1.90;;
69057;SDS011;56128;37.534;-122.308;2023-04-01T03:12:06;5.28;;;1.98;;
69057;SDS011;56128;37.534;-122.308;2023-04-01T03:14:32;6.70;;;1.98;;
69057;SDS011;56128;37.534;-122.308;2023-04-01T03:16:58;4.05;;;2.10;;
69057;SDS011;56128;37.534;-122.308;2023-04-01T03:19:25;6.95;;;1.50;;
69057;SDS011;56128;37.534;-122.308;2023-04-01T03:21:51;6.93;;;1.80;;
69057;SDS011;56128;37.534;-122.308;2023-04-01T03:24:17;4.95;;;1.40;;
69057;SDS011;56128;37.534;-122.308;2023-04-01T03:26:43;7.25;;;1.67;;
69057;SDS011;56128;37.534;-122.308;2023-04-01T03:29:10;7.88;;;1.95;;
69057;SDS011;56128;37.534;-122.308;2023-04-01T03:31:40;6.82;;;1.90;;
69057;SDS011;56128;37.534;-122.308;2023-04-01T03:34:07;6.15;;;2.00;;
69057;SDS011;56128;37.534;-122.308;2023-04-01T03:36:34;5.90;;;2.05;;
69057;SDS011;56128;37.534;-122.308;2023-04-01T03:39:00;6.53;;;1.85;;
69057;SDS011;56128;37.534;-122.308;2023-04-01T03:41:26;4.97;;;2.17;;
69057;SDS011;56128;37.534;-122.308;2023-04-01T03:43:53;6.72;;;2.00;;
69057;SDS011;56128;37.534;-122.308;2023-04-01T03:46:20;4.72;;;1.65;;
69057;SDS011;56128;37.534;-122.308;2023-04-01T03:48:46;7.20;;;1.98;;
69057;SDS011;56128;37.534;-122.308;2023-04-01T03:51:13;6.85;;;1.80;;
69057;SDS011;56128;37.534;-122.308;2023-04-01T03:53:39;4.13;;;1.40;;
69057;SDS011;56128;37.534;-122.308;2023-04-01T03:56:06;5.25;;;1.58;;
69057;SDS011;56128;37.534;-122.308;2023-04-01T03:58:34;3.92;;;1.50;;
69057;SDS011;56128;37.534;-122.308;2023-04-01T04:01:00;7.07;;;2.00;;
69057;SDS011;56128;37.534;-122.308;2023-04-01T04:03:27;4.18;;;1.58;;
69057;SDS011;56128;37.534;-122.308;2023-04-01T04:05:53;7.03;;;1.70;;
69057;SDS011;56128;37.534;-122.308;2023-04-01T04:08:21;6.50;;;1.60;;
69057;SDS011;56128;37.534;-122.308;2023-04-01T04:10:47;10.63;;;2.00;;
69057;SDS011;56128;37.534;-122.308;2023-04-01T04:13:20;5.38;;;2.00;;
69057;SDS011;56128;37.534;-122.308;2023-04-01T04:15:46;6.63;;;1.77;;
69057;SDS011;56128;37.534;-122.308;2023-04-01T04:18:12;4.63;;;1.67;;
69057;SDS011;56128;37.534;-122.308;2023-04-01T04:20:43;4.35;;;1.80;;
69057;SDS011;56128;37.534;-122.308;2023-04-01T04:23:12;6.93;;;1.70;;
69057;SDS011;56128;37.534;-122.308;2023-04-01T04:25:38;6.22;;;1.60;;
69057;SDS011;56128;37.534;-122.308;2023-04-01T04:28:04;6.60;;;1.65;;
69057;SDS011;56128;37.534;-122.308;2023-04-01T04:30:30;3.85;;;1.52;;
69057;SDS011;56128;37.534;-122.308;2023-04-01T04:32:57;5.00;;;1.73;;
69057;SDS011;56128;37.534;-122.308;2023-04-01T04:35:23;5.57;;;1.95;;
69057;SDS011;56128;37.534;-122.308;2023-04-01T04:37:49;4.63;;;1.60;;
69057;SDS011;56128;37.534;-122.308;2023-04-01T04:40:15;8.43;;;1.80;;
69057;SDS011;56128;37.534;-122.308;2023-04-01T04:42:42;9.70;;;2.60;;
69057;SDS011;56128;37.534;-122.308;2023-04-01T04:45:08;6.95;;;1.77;;
69057;SDS011;56128;37.534;-122.308;2023-04-01T04:47:34;6.97;;;1.65;;
69057;SDS011;56128;37.534;-122.308;2023-04-01T04:50:01;8.15;;;2.05;;
69057;SDS011;56128;37.534;-122.308;2023-04-01T04:52:27;7.05;;;2.20;;
69057;SDS011;56128;37.534;-122.308;2023-04-01T04:54:53;7.78;;;1.67;;
69057;SDS011;56128;37.534;-122.308;2023-04-01T04:57:19;5.13;;;1.90;;
69057;SDS011;56128;37.534;-122.308;2023-04-01T04:59:45;4.60;;;1.92;;
69057;SDS011;56128;37.534;-122.308;2023-04-01T05:02:12;3.50;;;1.70;;
69057;SDS011;56128;37.534;-122.308;2023-04-01T05:04:38;3.53;;;1.40;;
69057;SDS011;56128;37.534;-122.308;2023-04-01T05:07:04;6.80;;;1.65;;
69057;SDS011;56128;37.534;-122.308;2023-04-01T05:09:30;6.18;;;1.70;;
69057;SDS011;56128;37.534;-122.308;2023-04-01T05:11:57;5.35;;;1.70;;
69057;SDS011;56128;37.534;-122.308;2023-04-01T05:14:26;8.52;;;2.83;;
69057;SDS011;56128;37.534;-122.308;2023-04-01T05:16:52;6.07;;;1.98;;
69057;SDS011;56128;37.534;-122.308;2023-04-01T05:19:19;4.30;;;1.80;;
69057;SDS011;56128;37.534;-122.308;2023-04-01T05:21:46;6.03;;;1.60;;
69057;SDS011;56128;37.534;-122.308;2023-04-01T05:24:12;8.00;;;1.73;;
69057;SDS011;56128;37.534;-122.308;2023-04-01T05:26:38;5.85;;;2.08;;
69057;SDS011;56128;37.534;-122.308;2023-04-01T05:29:07;6.55;;;1.83;;
69057;SDS011;56128;37.534;-122.308;2023-04-01T05:31:34;9.20;;;2.55;;
69057;SDS011;56128;37.534;-122.308;2023-04-01T05:34:00;7.10;;;1.90;;
69057;SDS011;56128;37.534;-122.308;2023-04-01T05:36:26;3.95;;;1.80;;
69057;SDS011;56128;37.534;-122.308;2023-04-01T05:38:54;8.25;;;2.20;;
69057;SDS011;56128;37.534;-122.308;2023-04-01T05:41:21;7.70;;;1.77;;
69057;SDS011;56128;37.534;-122.308;2023-04-01T05:43:47;9.73;;;2.00;;
69057;SDS011;56128;37.534;-122.308;2023-04-01T05:46:14;7.03;;;2.08;;
69057;SDS011;56128;37.534;-122.308;2023-04-01T05:48:40;6.60;;;1.67;;
69057;SDS011;56128;37.534;-122.308;2023-04-01T05:51:06;7.15;;;1.90;;
69057;SDS011;56128;37.534;-122.308;2023-04-01T05:53:37;5.28;;;2.00;;
69057;SDS011;56128;37.534;-122.308;2023-04-01T05:56:03;5.93;;;1.95;;
69057;SDS011;56128;37.534;-122.308;2023-04-01T05:58:30;4.53;;;1.67;;
69057;SDS011;56128;37.534;-122.308;2023-04-01T06:01:03;6.47;;;1.60;;
69057;SDS011;56128;37.534;-122.308;2023-04-01T06:03:31;6.60;;;2.15;;
69057;SDS011;56128;37.534;-122.308;2023-04-01T06:05:58;12.18;;;2.28;;
69057;SDS011;56128;37.534;-122.308;2023-04-01T06:08:26;8.05;;;2.00;;
69057;SDS011;56128;37.534;-122.308;2023-04-01T06:11:14;8.30;;;1.95;;
69057;SDS011;56128;37.534;-122.308;2023-04-01T06:25:45;5.53;;;2.10;;
69057;SDS011;56128;37.534;-122.308;2023-04-01T06:31:37;5.43;;;1.75;;
69057;SDS011;56128;37.534;-122.308;2023-04-01T06:42:31;9.15;;;2.15;;
69057;SDS011;56128;37.534;-122.308;2023-04-01T06:56:20;5.68;;;1.90;;
69057;SDS011;56128;37.534;-122.308;2023-04-01T07:01:25;8.15;;;2.15;;
69057;SDS011;56128;37.534;-122.308;2023-04-01T07:03:59;8.05;;;2.00;;
69057;SDS011;56128;37.534;-122.308;2023-04-01T07:09:18;10.48;;;2.40;;
69057;SDS011;56128;37.534;-122.308;2023-04-01T07:11:48;7.15;;;1.95;;
69057;SDS011;56128;37.534;-122.308;2023-04-01T07:16:56;9.05;;;1.95;;
69057;SDS011;56128;37.534;-122.308;2023-04-01T07:19:39;6.00;;;2.10;;
69057;SDS011;56128;37.534;-122.308;2023-04-01T07:22:41;13.80;;;2.25;;
69057;SDS011;56128;37.534;-122.308;2023-04-01T07:25:12;8.38;;;1.65;;
69057;SDS011;56128;37.534;-122.308;2023-04-01T07:27:44;10.43;;;2.33;;
69057;SDS011;56128;37.534;-122.308;2023-04-01T07:30:13;6.95;;;2.05;;
69057;SDS011;56128;37.534;-122.308;2023-04-01T07:32:42;7.38;;;2.05;;
69057;SDS011;56128;37.534;-122.308;2023-04-01T07:36:03;7.25;;;2.28;;
69057;SDS011;56128;37.534;-122.308;2023-04-01T07:49:25;5.53;;;1.90;;
69057;SDS011;56128;37.534;-122.308;2023-04-01T07:52:08;5.30;;;1.95;;
69057;SDS011;56128;37.534;-122.308;2023-04-01T07:55:04;8.25;;;2.13;;
69057;SDS011;56128;37.534;-122.308;2023-04-01T08:00:51;4.95;;;1.98;;
69057;SDS011;56128;37.534;-122.308;2023-04-01T08:03:13;5.55;;;1.88;;
69057;SDS011;56128;37.534;-122.308;2023-04-01T08:11:13;10.30;;;2.10;;
69057;SDS011;56128;37.534;-122.308;2023-04-01T08:22:16;6.38;;;1.70;;
69057;SDS011;56128;37.534;-122.308;2023-04-01T08:24:52;7.90;;;1.95;;
69057;SDS011;56128;37.534;-122.308;2023-04-01T08:27:46;10.27;;;1.98;;
69057;SDS011;56128;37.534;-122.308;2023-04-01T08:30:21;5.05;;;2.15;;
69057;SDS011;56128;37.534;-122.308;2023-04-01T08:32:59;6.32;;;1.70;;
69057;SDS011;56128;37.534;-122.308;2023-04-01T08:35:38;9.02;;;2.10;;
69057;SDS011;56128;37.534;-122.308;2023-04-01T08:41:21;9.75;;;2.30;;
69057;SDS011;56128;37.534;-122.308;2023-04-01T08:47:42;9.38;;;1.95;;
69057;SDS011;56128;37.534;-122.308;2023-04-01T08:52:57;6.03;;;2.20;;
69057;SDS011;56128;37.534;-122.308;2023-04-01T09:01:34;7.30;;;1.70;;
69057;SDS011;56128;37.534;-122.308;2023-04-01T09:04:22;3.20;;;1.33;;
69057;SDS011;56128;37.534;-122.308;2023-04-01T09:19:15;8.15;;;1.90;;
69057;SDS011;56128;37.534;-122.308;2023-04-01T09:30:29;6.85;;;2.40;;
69057;SDS011;56128;37.534;-122.308;2023-04-01T09:35:48;5.35;;;2.17;;
69057;SDS011;56128;37.534;-122.308;2023-04-01T09:38:26;10.13;;;1.70;;
69057;SDS011;56128;37.534;-122.308;2023-04-01T09:41:29;6.72;;;1.60;;
69057;SDS011;56128;37.534;-122.308;2023-04-01T09:44:05;11.60;;;2.85;;
69057;SDS011;56128;37.534;-122.308;2023-04-01T09:55:16;7.55;;;1.58;;
69057;SDS011;56128;37.534;-122.308;2023-04-01T10:14:50;3.03;;;1.60;;
69057;SDS011;56128;37.534;-122.308;2023-04-01T10:26:05;6.78;;;1.27;;
69057;SDS011;56128;37.534;-122.308;2023-04-01T10:34:31;5.20;;;1.80;;
69057;SDS011;56128;37.534;-122.308;2023-04-01T10:43:19;9.07;;;1.95;;
69057;SDS011;56128;37.534;-122.308;2023-04-01T10:54:36;6.28;;;1.60;;
69057;SDS011;56128;37.534;-122.308;2023-04-01T10:57:27;7.30;;;1.70;;
69057;SDS011;56128;37.534;-122.308;2023-04-01T11:11:37;4.47;;;1.58;;
69057;SDS011;56128;37.534;-122.308;2023-04-01T11:14:33;7.20;;;1.65;;
69057;SDS011;56128;37.534;-122.308;2023-04-01T11:17:34;6.45;;;1.80;;
69057;SDS011;56128;37.534;-122.308;2023-04-01T11:26:02;3.25;;;1.55;;
69057;SDS011;56128;37.534;-122.308;2023-04-01T11:37:38;8.98;;;1.77;;
69057;SDS011;56128;37.534;-122.308;2023-04-01T11:43:01;4.47;;;1.75;;
69057;SDS011;56128;37.534;-122.308;2023-04-01T11:45:39;5.97;;;1.80;;
69057;SDS011;56128;37.534;-122.308;2023-04-01T11:54:03;4.00;;;1.60;;
69057;SDS011;56128;37.534;-122.308;2023-04-01T11:56:52;8.65;;;1.80;;
69057;SDS011;56128;37.534;-122.308;2023-04-01T12:05:15;3.60;;;1.63;;
69057;SDS011;56128;37.534;-122.308;2023-04-01T12:08:10;6.32;;;1.60;;
69057;SDS011;56128;37.534;-122.308;2023-04-01T12:11:15;2.97;;;1.50;;
69057;SDS011;56128;37.534;-122.308;2023-04-01T12:14:18;3.03;;;1.38;;
69057;SDS011;56128;37.534;-122.308;2023-04-01T12:19:46;5.97;;;1.85;;
69057;SDS011;56128;37.534;-122.308;2023-04-01T12:30:28;4.53;;;1.85;;
69057;SDS011;56128;37.534;-122.308;2023-04-01T12:39:03;7.97;;;1.63;;
69057;SDS011;56128;37.534;-122.308;2023-04-01T12:42:28;5.45;;;1.50;;
69057;SDS011;56128;37.534;-122.308;2023-04-01T12:54:12;5.70;;;1.83;;
69057;SDS011;56128;37.534;-122.308;2023-04-01T13:08:31;7.18;;;1.90;;
69057;SDS011;56128;37.534;-122.308;2023-04-01T13:11:01;8.05;;;1.75;;
69057;SDS011;56128;37.534;-122.308;2023-04-01T13:16:52;4.47;;;1.67;;
69057;SDS011;56128;37.534;-122.308;2023-04-01T13:19:41;10.90;;;1.73;;
69057;SDS011;56128;37.534;-122.308;2023-04-01T13:22:17;6.30;;;1.35;;
69057;SDS011;56128;37.534;-122.308;2023-04-01T13:33:37;5.45;;;1.63;;
69057;SDS011;56128;37.534;-122.308;2023-04-01T13:36:15;5.90;;;1.80;;
69057;SDS011;56128;37.534;-122.308;2023-04-01T13:42:18;8.00;;;1.50;;
69057;SDS011;56128;37.534;-122.308;2023-04-01T13:47:50;6.72;;;1.77;;
69057;SDS011;56128;37.534;-122.308;2023-04-01T13:51:21;6.80;;;1.80;;
69057;SDS011;56128;37.534;-122.308;2023-04-01T13:59:18;3.78;;;1.45;;
69057;SDS011;56128;37.534;-122.308;2023-04-01T14:02:07;8.25;;;1.60;;
69057;SDS011;56128;37.534;-122.308;2023-04-01T14:05:13;5.43;;;1.50;;
69057;SDS011;56128;37.534;-122.308;2023-04-01T14:08:00;3.97;;;1.48;;
69057;SDS011;56128;37.534;-122.308;2023-04-01T14:16:27;6.63;;;1.90;;
69057;SDS011;56128;37.534;-122.308;2023-04-01T14:30:32;9.30;;;2.20;;
69057;SDS011;56128;37.534;-122.308;2023-04-01T14:43:30;9.30;;;1.80;;
69057;SDS011;56128;37.534;-122.308;2023-04-01T14:50:02;6.25;;;1.90;;
69057;SDS011;56128;37.534;-122.308;2023-04-01T14:54:56;7.57;;;2.03;;
69057;SDS011;56128;37.534;-122.308;2023-04-01T14:57:28;4.10;;;1.60;;
69057;SDS011;56128;37.534;-122.308;2023-04-01T15:00:17;7.55;;;2.45;;
69057;SDS011;56128;37.534;-122.308;2023-04-01T15:02:57;5.70;;;1.90;;
69057;SDS011;56128;37.534;-122.308;2023-04-01T15:08:26;9.02;;;2.67;;
69057;SDS011;56128;37.534;-122.308;2023-04-01T15:14:23;5.38;;;2.00;;
69057;SDS011;56128;37.534;-122.308;2023-04-01T15:28:05;9.82;;;2.40;;
69057;SDS011;56128;37.534;-122.308;2023-04-01T15:38:36;7.72;;;3.00;;
69057;SDS011;56128;37.534;-122.308;2023-04-01T15:43:49;9.02;;;3.00;;
69057;SDS011;56128;37.534;-122.308;2023-04-01T15:46:22;13.15;;;4.15;;
69057;SDS011;56128;37.534;-122.308;2023-04-01T15:52:07;11.90;;;4.20;;
69057;SDS011;56128;37.534;-122.308;2023-04-01T15:57:21;10.40;;;4.10;;
69057;SDS011;56128;37.534;-122.308;2023-04-01T16:02:51;8.60;;;2.88;;
69057;SDS011;56128;37.534;-122.308;2023-04-01T16:21:43;5.85;;;2.38;;
69057;SDS011;56128;37.534;-122.308;2023-04-01T16:27:24;8.07;;;2.10;;
69057;SDS011;56128;37.534;-122.308;2023-04-01T16:30:16;7.35;;;2.10;;
69057;SDS011;56128;37.534;-122.308;2023-04-01T16:33:03;7.35;;;1.73;;
69057;SDS011;56128;37.534;-122.308;2023-04-01T16:47:31;5.90;;;1.80;;
69057;SDS011;56128;37.534;-122.308;2023-04-01T16:50:13;5.63;;;1.60;;
69057;SDS011;56128;37.534;-122.308;2023-04-01T16:55:45;7.07;;;1.58;;
69057;SDS011;56128;37.534;-122.308;2023-04-01T16:58:20;4.57;;;1.80;;
69057;SDS011;56128;37.534;-122.308;2023-04-01T17:01:06;3.83;;;1.45;;
69057;SDS011;56128;37.534;-122.308;2023-04-01T17:03:52;6.65;;;2.38;;
69057;SDS011;56128;37.534;-122.308;2023-04-01T17:09:20;5.60;;;1.90;;
69057;SDS011;56128;37.534;-122.308;2023-04-01T17:12:43;6.75;;;1.67;;
69057;SDS011;56128;37.534;-122.308;2023-04-01T17:15:12;4.13;;;1.30;;
69057;SDS011;56128;37.534;-122.308;2023-04-01T17:17:54;3.88;;;1.50;;
69057;SDS011;56128;37.534;-122.308;2023-04-01T17:23:10;4.40;;;1.75;;
69057;SDS011;56128;37.534;-122.308;2023-04-01T17:28:43;5.32;;;1.48;;
69057;SDS011;56128;37.534;-122.308;2023-04-01T17:31:42;4.97;;;1.67;;
69057;SDS011;56128;37.534;-122.308;2023-04-01T17:34:18;3.33;;;1.30;;
69057;SDS011;56128;37.534;-122.308;2023-04-01T17:39:40;6.05;;;1.85;;
69057;SDS011;56128;37.534;-122.308;2023-04-01T17:45:24;5.03;;;1.50;;
69057;SDS011;56128;37.534;-122.308;2023-04-01T17:59:07;4.63;;;1.40;;
69057;SDS011;56128;37.534;-122.308;2023-04-01T18:01:48;6.88;;;1.95;;
69057;SDS011;56128;37.534;-122.308;2023-04-01T18:04:58;6.78;;;1.60;;
69057;SDS011;56128;37.534;-122.308;2023-04-01T18:07:41;5.38;;;1.67;;
69057;SDS011;56128;37.534;-122.308;2023-04-01T18:23:50;5.97;;;1.60;;
69057;SDS011;56128;37.534;-122.308;2023-04-01T18:26:22;4.90;;;1.80;;
69057;SDS011;56128;37.534;-122.308;2023-04-01T18:28:54;5.03;;;1.30;;
69057;SDS011;56128;37.534;-122.308;2023-04-01T18:31:26;7.20;;;1.60;;
69057;SDS011;56128;37.534;-122.308;2023-04-01T18:39:40;6.82;;;1.50;;
69057;SDS011;56128;37.534;-122.308;2023-04-01T18:50:34;6.20;;;1.60;;
69057;SDS011;56128;37.534;-122.308;2023-04-01T18:56:22;4.60;;;1.67;;
69057;SDS011;56128;37.534;-122.308;2023-04-01T19:04:52;5.28;;;1.67;;
69057;SDS011;56128;37.534;-122.308;2023-04-01T19:15:52;6.47;;;1.88;;
69057;SDS011;56128;37.534;-122.308;2023-04-01T19:18:40;6.22;;;1.85;;
69057;SDS011;56128;37.534;-122.308;2023-04-01T19:21:26;5.25;;;1.50;;
69057;SDS011;56128;37.534;-122.308;2023-04-01T19:27:25;8.18;;;1.70;;
69057;SDS011;56128;37.534;-122.308;2023-04-01T19:52:47;5.50;;;1.73;;
69057;SDS011;56128;37.534;-122.308;2023-04-01T20:11:24;5.13;;;1.30;;
69057;SDS011;56128;37.534;-122.308;2023-04-01T20:14:49;8.18;;;1.70;;
69057;SDS011;56128;37.534;-122.308;2023-04-01T20:17:18;5.03;;;1.40;;
69057;SDS011;56128;37.534;-122.308;2023-04-01T20:19:55;5.60;;;1.52;;
69057;SDS011;56128;37.534;-122.308;2023-04-01T20:22:35;4.60;;;1.88;;
69057;SDS011;56128;37.534;-122.308;2023-04-01T20:28:02;4.22;;;1.52;;
69057;SDS011;56128;37.534;-122.308;2023-04-01T20:39:03;8.07;;;2.17;;
69057;SDS011;56128;37.534;-122.308;2023-04-01T20:47:10;6.18;;;1.60;;
69057;SDS011;56128;37.534;-122.308;2023-04-01T20:52:29;5.45;;;1.52;;
69057;SDS011;56128;37.534;-122.308;2023-04-01T20:55:18;5.35;;;1.55;;
69057;SDS011;56128;37.534;-122.308;2023-04-01T20:58:08;5.30;;;1.95;;
69057;SDS011;56128;37.534;-122.308;2023-04-01T21:00:58;4.35;;;1.10;;
69057;SDS011;56128;37.534;-122.308;2023-04-01T21:03:41;2.95;;;1.15;;
69057;SDS011;56128;37.534;-122.308;2023-04-01T21:06:18;7.88;;;1.40;;
69057;SDS011;56128;37.534;-122.308;2023-04-01T21:25:43;4.00;;;1.23;;
69057;SDS011;56128;37.534;-122.308;2023-04-01T21:28:25;4.57;;;1.10;;
69057;SDS011;56128;37.534;-122.308;2023-04-01T21:38:59;5.03;;;1.30;;
69057;SDS011;56128;37.534;-122.308;2023-04-01T21:52:24;5.05;;;1.30;;
69057;SDS011;56128;37.534;-122.308;2023-04-01T21:55:22;5.35;;;1.65;;
69057;SDS011;56128;37.534;-122.308;2023-04-01T21:58:19;4.07;;;1.30;;
69057;SDS011;56128;37.534;-122.308;2023-04-01T22:03:44;4.18;;;1.40;;
69057;SDS011;56128;37.534;-122.308;2023-04-01T22:06:49;5.45;;;1.52;;
69057;SDS011;56128;37.534;-122.308;2023-04-01T22:09:29;5.38;;;1.23;;
69057;SDS011;56128;37.534;-122.308;2023-04-01T22:12:09;3.75;;;1.45;;
69057;SDS011;56128;37.534;-122.308;2023-04-01T22:18:13;4.18;;;1.20;;
69057;SDS011;56128;37.534;-122.308;2023-04-01T22:27:06;5.95;;;1.70;;
69057;SDS011;56128;37.534;-122.308;2023-04-01T22:29:43;3.55;;;1.05;;
69057;SDS011;56128;37.534;-122.308;2023-04-01T22:32:38;4.38;;;1.10;;
69057;SDS011;56128;37.534;-122.308;2023-04-01T22:35:39;4.78;;;1.10;;
69057;SDS011;56128;37.534;-122.308;2023-04-01T22:38:20;3.50;;;1.13;;
69057;SDS011;56128;37.534;-122.308;2023-04-01T22:40:52;3.83;;;1.30;;
69057;SDS011;56128;37.534;-122.308;2023-04-01T22:43:37;5.40;;;1.20;;
69057;SDS011;56128;37.534;-122.308;2023-04-01T22:49:06;2.83;;;1.02;;
69057;SDS011;56128;37.534;-122.308;2023-04-01T22:54:32;1.73;;;0.90;;
69057;SDS011;56128;37.534;-122.308;2023-04-01T22:57:16;3.83;;;1.27;;
69057;SDS011;56128;37.534;-122.308;2023-04-01T23:05:22;2.60;;;0.93;;
69057;SDS011;56128;37.534;-122.308;2023-04-01T23:07:56;5.25;;;1.02;;
69057;SDS011;56128;37.534;-122.308;2023-04-01T23:10:29;6.45;;;1.20;;
69057;SDS011;56128;37.534;-122.308;2023-04-01T23:13:04;4.32;;;1.40;;
69057;SDS011;56128;37.534;-122.308;2023-04-01T23:15:39;2.50;;;1.15;;
69057;SDS011;56128;37.534;-122.308;2023-04-01T23:18:09;4.47;;;1.10;;
69057;SDS011;56128;37.534;-122.308;2023-04-01T23:23:26;4.53;;;1.15;;
69057;SDS011;56128;37.534;-122.308;2023-04-01T23:26:10;4.70;;;1.02;;
69057;SDS011;56128;37.534;-122.308;2023-04-01T23:34:18;3.55;;;1.10;;
69057;SDS011;56128;37.534;-122.308;2023-04-01T23:36:52;1.83;;;0.98;;
69057;SDS011;56128;37.534;-122.308;2023-04-01T23:39:22;2.80;;;1.30;;
69057;SDS011;56128;37.534;-122.308;2023-04-01T23:44:46;3.60;;;0.90;;
69057;SDS011;56128;37.534;-122.308;2023-04-01T23:47:22;4.93;;;1.25;;
69057;SDS011;56128;37.534;-122.308;2023-04-01T23:50:00;2.90;;;0.95;;
69057;SDS011;56128;37.534;-122.308;2023-04-01T23:52:38;2.63;;;0.88;;
69057;SDS011;56128;37.534;-122.308;2023-04-01T23:57:59;2.20;;;1.00;;
